createdAt,value
2022-10-16T00:04:56.650Z,18.80
2022-10-16T00:20:01.101Z,18.70
2022-10-16T00:35:06.496Z,18.60
2022-10-16T00:50:16.280Z,18.50
2022-10-16T01:05:21.005Z,18.60
2022-10-16T01:20:31.035Z,19.00
2022-10-16T01:35:39.668Z,18.80
2022-10-16T01:50:46.371Z,18.80
2022-10-16T02:05:54.794Z,18.80
2022-10-16T02:21:02.917Z,18.80
2022-10-16T02:36:08.306Z,18.80
2022-10-16T02:51:12.663Z,18.50
2022-10-16T03:06:17.283Z,18.50
2022-10-16T03:21:21.696Z,18.60
2022-10-16T03:36:26.106Z,18.80
2022-10-16T03:51:30.454Z,18.70
2022-10-16T04:06:34.824Z,18.50
2022-10-16T04:21:40.184Z,18.70
2022-10-16T04:36:45.173Z,18.50
2022-10-16T04:51:49.669Z,18.40
2022-10-16T05:06:54.466Z,18.00
2022-10-16T05:21:58.869Z,17.90
2022-10-16T05:37:03.247Z,18.40
2022-10-16T05:52:07.679Z,18.10
2022-10-16T06:07:12.041Z,18.60
2022-10-16T06:22:17.013Z,18.40
2022-10-16T06:37:21.321Z,18.60
2022-10-16T06:52:26.053Z,18.70
2022-10-16T07:07:30.735Z,18.60
2022-10-16T07:22:35.089Z,18.50
2022-10-16T07:37:39.418Z,18.60
2022-10-16T07:52:43.775Z,18.50
2022-10-16T08:07:52.147Z,18.80
2022-10-16T08:22:57.142Z,19.00
2022-10-16T08:38:01.778Z,19.20
2022-10-16T08:53:08.241Z,19.40
2022-10-16T09:08:21.891Z,19.30
2022-10-16T09:23:29.755Z,19.30
2022-10-16T09:38:36.878Z,19.70
2022-10-16T09:53:44.237Z,19.90
2022-10-16T10:09:04.739Z,20.10
2022-10-16T10:24:13.048Z,20.10
2022-10-16T10:39:24.490Z,20.40
2022-10-16T10:54:35.203Z,20.50
2022-10-16T11:09:46.751Z,20.50
2022-10-16T11:40:20.815Z,20.70
2022-10-16T11:55:31.560Z,20.70
2022-10-16T12:25:57.015Z,20.90
2022-10-16T12:41:04.889Z,21.10
2022-10-16T12:56:18.301Z,21.10
2022-10-16T13:11:29.102Z,21.20
2022-10-16T13:26:42.177Z,21.20
2022-10-16T13:41:46.895Z,21.60
2022-10-16T13:57:03.090Z,22.40
2022-10-16T14:12:14.300Z,21.80
2022-10-16T14:27:30.682Z,21.70
2022-10-16T14:42:35.215Z,21.60
2022-10-16T14:57:41.001Z,21.70
2022-10-16T15:12:45.951Z,21.70
2022-10-16T15:27:50.416Z,21.60
2022-10-16T15:42:54.867Z,21.70
2022-10-16T15:57:59.337Z,21.90
2022-10-16T16:13:04.048Z,21.60
2022-10-16T16:28:08.530Z,21.50
2022-10-16T16:43:13.320Z,21.50
2022-10-16T16:58:17.774Z,21.40
2022-10-16T17:13:22.709Z,21.30
2022-10-16T17:28:27.303Z,21.30
2022-10-16T17:43:31.859Z,21.20
2022-10-16T17:58:36.564Z,21.10
2022-10-16T18:13:41.374Z,21.10
2022-10-16T18:28:46.044Z,21.00
2022-10-16T18:43:50.613Z,21.00
2022-10-16T18:58:59.055Z,21.00
2022-10-16T19:14:03.773Z,21.00
2022-10-16T19:29:09.280Z,20.90
2022-10-16T19:44:15.485Z,20.90
2022-10-16T19:59:20.355Z,20.90
2022-10-16T20:14:24.875Z,20.90
2022-10-16T20:29:29.292Z,20.80
2022-10-16T20:44:35.127Z,20.80
2022-10-16T20:59:39.476Z,20.80
2022-10-16T21:15:02.365Z,20.70
2022-10-16T21:30:10.847Z,20.70
2022-10-16T21:45:15.345Z,20.70
2022-10-16T22:00:19.872Z,20.70
2022-10-16T22:30:36.807Z,20.70
2022-10-16T22:45:41.171Z,20.70
2022-10-16T23:00:46.071Z,20.70
2022-10-16T23:15:50.463Z,20.60
2022-10-16T23:30:54.842Z,20.60
2022-10-16T23:45:59.224Z,20.60
